Algona, IA

1:50 AM CDT on July 13, 2014 (GMT -0500)
Algona Municipal (KAXA) Elev 1220 ft | 43.08 °N, 94.27 °W | Change Station

Current weather conditions updated 15 minutes ago

Clear
Clear
63 °F
Feels Like 63 °F
N
4
Wind Variable Wind from WSW

Today is forecast to be Warmer than yesterday.

Today
High -- | Low -- °F
--% Chance of Precip.
Yesterday
High -- | Low -- °F
Precip. -- in
5:49 AM 8:55 PM
Full, 99% visible
Pressure 29.99 in
Visibility 9.0 miles
Clouds Clear
Dew Point 63 °F
Humidity 100%
Rainfall 0.00 in
Snow Depth Not available.
UV 0 out of 12
Pollen .50 out of 12
Air Quality Not available.
Flu Activity Sporadic
METAR KAXA 130635Z AUTO 25003KT 9SM CLR 17/17 A2999 RMK AO2

More Conditions Fewer Conditions

Pressure 29.99 in
Visibility 9.0 miles
Clouds Clear
Dew Point 63 °F
Humidity 100%
Rainfall 0.00 in
Snow Depth Not available.
UV 0 out of 12
Pollen .50 out of 12
Air Quality Not available.
Flu Activity Sporadic
METAR KAXA 130635Z AUTO 25003KT 9SM CLR 17/17 A2999 RMK AO2

More Conditions Fewer Conditions

10-Day Weather Forecast

Almanac

Astronomy

Jul. 13, 2014 Rise Set
Actual Time 5:49 AM CDT 8:55 PM CDT
Civil Twilight 5:15 AM CDT 9:29 PM CDT
Nautical Twilight 4:31 AM CDT 10:13 PM CDT
Astronomical Twilight 3:38 AM CDT 11:05 PM CDT
Moon 9:39 PM CDT 7:24 AM CDT
Length of Visible Light 16h 14m
Length of Day
15h 05m
Tomorrow will be 1m 27s shorter.
Full, 99% of the Moon is Illuminated
Today
Full
Jul 18
Last Quarter
Jul 26
New
Aug 3
First Quarter
Aug 10
Full

Today's Extremes

State Highs State Lows

Community

WunderPhotos

Upload Photos

1,733,116 photos uploaded!

Nearby

Snow Depth

Station Depth Elevation
No new snow has been reported.

Earthquake Activity

City Distance Mag. Time & Date
No recent earthquake activity has been reported nearby.
Minimum magnitude displayed is 2.5.

Coastal Water Temperatures

Place Temperature
No Stations Reporting

Nearby Weather Stations

Station Location Temp. Dew Point Humidity Wind Precip. Elev Updated Type
Farm Acreage, Bode, IA 64.4 °F 64 °F 98% NW  at  0.0 mph 0.00 in / hr 1130 ft 1:46 AM CDT Normal
SW Ottosen, OTTOSEN, IA 63.3 °F 62 °F 97% West  at  0.0 mph 0.00 in / hr 1175 ft 1:49 AM CDT Rapid Fire
Erin Township Trading Post, Britt, IA 64.2 °F 64 °F 99% WSW  at  3.0 mph 0.00 in / hr 1178 ft 1:42 AM CDT Normal
273 1st ST SW, Britt, IA 63.0 °F 63 °F 98% North  at  0.0 mph 0.00 in / hr 1214 ft 1:47 AM CDT Normal
Plover Pit, Plover, IA 65.7 °F 65 °F 99% West  at  0.0 mph 0.00 in / hr 1190 ft 1:50 AM CDT Normal
Dakota City, IA 65.0 °F 64 °F 98% WNW  at  0.0 mph 0.00 in / hr 1130 ft 1:41 AM CDT Normal
Mallard, Mallard, IA 65.1 °F 65 °F 98% WSW  at  0.0 mph 0.00 in / hr 1224 ft 1:42 AM CDT Normal

Show More Stations Show Fewer Stations